createdAt,value
2023-03-27T00:02:24.289Z,99168.88
2023-03-27T00:04:54.801Z,99181.06
2023-03-27T00:07:22.911Z,99175.72
2023-03-27T00:09:51.302Z,99168.81
2023-03-27T00:12:19.127Z,99159.28
2023-03-27T00:14:47.504Z,99163.84
2023-03-27T00:17:15.155Z,99175.09
2023-03-27T00:19:44.337Z,99182.63
2023-03-27T00:22:12.068Z,99182.06
2023-03-27T00:24:39.989Z,99181.69
2023-03-27T00:27:09.427Z,99188.09
2023-03-27T00:29:38.124Z,99186.03
2023-03-27T00:32:06.010Z,99180.88
2023-03-27T00:34:34.312Z,99181.59
2023-03-27T00:37:04.861Z,99186.09
2023-03-27T00:39:32.847Z,99187.47
2023-03-27T00:42:00.567Z,99180.44
2023-03-27T00:44:34.490Z,99185.59
2023-03-27T00:47:04.616Z,99181.53
2023-03-27T00:49:34.980Z,99193.00
2023-03-27T00:52:04.962Z,99199.81
2023-03-27T00:54:36.217Z,99208.25
2023-03-27T00:57:07.482Z,99211.41
2023-03-27T00:59:37.393Z,99191.41
2023-03-27T01:02:05.327Z,99190.44
2023-03-27T01:04:36.185Z,99177.75
2023-03-27T01:07:05.924Z,99181.38
2023-03-27T01:09:34.270Z,99183.19
2023-03-27T01:12:01.832Z,99197.84
2023-03-27T01:14:47.573Z,99198.66
2023-03-27T01:17:36.490Z,99197.88
2023-03-27T01:20:23.496Z,99208.06
2023-03-27T01:22:52.845Z,99205.59
2023-03-27T01:25:48.513Z,99201.53
2023-03-27T01:28:16.446Z,99200.94
2023-03-27T01:30:44.726Z,99204.28
2023-03-27T01:33:21.828Z,99193.34
2023-03-27T01:35:52.896Z,99202.94
2023-03-27T01:38:40.314Z,99199.34
2023-03-27T01:41:16.398Z,99215.97
2023-03-27T01:43:53.205Z,99226.84
2023-03-27T01:46:24.498Z,99237.91
2023-03-27T01:49:00.515Z,99246.09
2023-03-27T01:51:39.890Z,99236.97
2023-03-27T01:54:14.088Z,99243.03
2023-03-27T01:56:53.753Z,99241.06
2023-03-27T01:59:27.381Z,99233.75
2023-03-27T02:01:59.235Z,99232.63
2023-03-27T02:04:33.478Z,99229.72
2023-03-27T02:07:04.558Z,99230.44
2023-03-27T02:09:37.664Z,99234.66
2023-03-27T02:12:12.169Z,99230.84
2023-03-27T02:14:42.667Z,99238.22
2023-03-27T02:17:14.475Z,99238.97
2023-03-27T02:20:11.470Z,99245.03
2023-03-27T02:22:40.262Z,99257.34
2023-03-27T02:25:24.220Z,99262.09
2023-03-27T02:28:00.623Z,99257.25
2023-03-27T02:30:39.932Z,99253.69
2023-03-27T02:33:17.701Z,99267.75
2023-03-27T02:35:45.379Z,99259.19
2023-03-27T02:38:23.934Z,99248.59
2023-03-27T02:41:14.848Z,99260.19
2023-03-27T02:44:07.486Z,99264.84
2023-03-27T02:47:04.559Z,99273.34
2023-03-27T02:49:36.249Z,99268.34
2023-03-27T02:52:08.264Z,99255.56
2023-03-27T02:54:39.730Z,99262.53
2023-03-27T02:57:15.231Z,99272.13
2023-03-27T03:00:26.281Z,99281.88
2023-03-27T03:03:05.990Z,99285.47
2023-03-27T03:05:37.588Z,99287.97
2023-03-27T03:08:06.006Z,99289.59
2023-03-27T03:10:34.278Z,99293.03
2023-03-27T03:13:02.007Z,99300.53
2023-03-27T03:15:29.978Z,99295.28
2023-03-27T03:17:57.665Z,99294.88
2023-03-27T03:20:30.056Z,99283.59
2023-03-27T03:22:57.835Z,99289.78
2023-03-27T03:25:26.006Z,99312.53
2023-03-27T03:27:58.341Z,99314.53
2023-03-27T03:30:27.581Z,99316.72
2023-03-27T03:33:04.589Z,99320.94
2023-03-27T03:35:35.112Z,99318.47
2023-03-27T03:38:10.025Z,99314.66
2023-03-27T03:40:46.776Z,99312.03
2023-03-27T03:43:14.552Z,99319.13
2023-03-27T03:45:42.618Z,99319.53
2023-03-27T03:48:10.778Z,99324.03
2023-03-27T03:50:38.928Z,99336.56
2023-03-27T03:53:06.830Z,99342.81
2023-03-27T03:55:34.937Z,99351.78
2023-03-27T03:58:03.094Z,99352.47
2023-03-27T04:00:34.854Z,99355.53
2023-03-27T04:03:04.790Z,99363.34
2023-03-27T04:05:36.935Z,99362.69
2023-03-27T04:08:07.467Z,99364.09
2023-03-27T04:10:39.654Z,99362.56
2023-03-27T04:13:15.017Z,99365.91
2023-03-27T04:15:55.570Z,99368.00
2023-03-27T04:18:33.126Z,99361.94
2023-03-27T04:21:05.443Z,99351.22
2023-03-27T04:23:33.567Z,99349.97
2023-03-27T04:26:04.246Z,99345.63
2023-03-27T04:28:51.859Z,99349.72
2023-03-27T04:31:46.757Z,99356.47
2023-03-27T04:34:34.510Z,99361.28
2023-03-27T04:37:09.727Z,99366.13
2023-03-27T04:39:43.626Z,99360.53
2023-03-27T04:42:12.569Z,99365.16
2023-03-27T04:44:40.631Z,99369.03
2023-03-27T04:47:09.203Z,99364.72
2023-03-27T04:49:40.739Z,99375.38
2023-03-27T04:52:18.720Z,99376.06
2023-03-27T04:54:46.927Z,99376.66
2023-03-27T04:57:19.139Z,99381.13
2023-03-27T04:59:50.677Z,99388.81
2023-03-27T05:02:57.924Z,99387.56
2023-03-27T05:05:37.113Z,99385.22
2023-03-27T05:08:06.966Z,99383.72
2023-03-27T05:10:34.523Z,99376.81
2023-03-27T05:13:02.512Z,99380.13
2023-03-27T05:15:32.932Z,99380.78
2023-03-27T05:18:03.922Z,99397.66
2023-03-27T05:20:33.015Z,99409.47
2023-03-27T05:23:06.591Z,99404.59
2023-03-27T05:25:34.672Z,99410.13
2023-03-27T05:28:06.316Z,99415.06
2023-03-27T05:30:36.324Z,99424.34
2023-03-27T05:33:17.888Z,99431.81
2023-03-27T05:35:48.978Z,99431.69
2023-03-27T05:38:18.563Z,99430.28
2023-03-27T05:41:04.782Z,99426.09
2023-03-27T05:43:37.025Z,99427.78
2023-03-27T05:46:05.074Z,99422.09
2023-03-27T05:48:33.601Z,99417.88
2023-03-27T05:51:05.351Z,99427.06
2023-03-27T05:53:36.593Z,99435.81
2023-03-27T05:56:22.750Z,99432.69
2023-03-27T05:58:57.525Z,99430.97
2023-03-27T06:01:28.148Z,99447.94
2023-03-27T06:04:04.683Z,99445.19
2023-03-27T06:06:50.724Z,99454.59
2023-03-27T06:09:18.828Z,99462.38
2023-03-27T06:12:04.338Z,99452.28
2023-03-27T06:14:36.453Z,99458.66
2023-03-27T06:17:19.181Z,99459.97
2023-03-27T06:19:55.296Z,99461.56
2023-03-27T06:22:23.172Z,99464.69
2023-03-27T06:24:51.864Z,99471.47
2023-03-27T06:27:23.592Z,99470.25
2023-03-27T06:29:51.816Z,99466.25
2023-03-27T06:32:22.582Z,99467.91
2023-03-27T06:34:53.323Z,99470.13
2023-03-27T06:37:53.888Z,99474.25
2023-03-27T06:40:25.114Z,99470.91
2023-03-27T06:42:59.910Z,99474.94
2023-03-27T06:45:50.110Z,99475.38
2023-03-27T06:48:53.177Z,99479.78
2023-03-27T06:51:23.274Z,99483.19
2023-03-27T06:53:53.652Z,99488.47
2023-03-27T06:56:22.586Z,99493.22
2023-03-27T06:59:13.560Z,99488.34
2023-03-27T07:01:42.083Z,99499.09
2023-03-27T07:04:28.417Z,99493.72
2023-03-27T07:07:19.307Z,99492.06
2023-03-27T07:09:47.187Z,99494.41
2023-03-27T07:12:18.274Z,99504.38
2023-03-27T07:14:48.224Z,99511.59
2023-03-27T07:17:16.768Z,99507.13
2023-03-27T07:19:49.947Z,99507.97
2023-03-27T07:22:20.384Z,99511.84
2023-03-27T07:24:48.178Z,99519.38
2023-03-27T07:27:16.707Z,99521.72
2023-03-27T07:29:46.097Z,99517.22
2023-03-27T07:32:36.101Z,99519.56
2023-03-27T07:35:06.027Z,99509.72
2023-03-27T07:37:49.208Z,99505.59
2023-03-27T07:40:40.565Z,99497.88
2023-03-27T07:43:35.222Z,99504.81
2023-03-27T07:46:06.294Z,99503.09
2023-03-27T07:48:36.111Z,99505.88
2023-03-27T07:51:13.286Z,99505.50
2023-03-27T07:53:43.837Z,99504.47
2023-03-27T07:56:18.198Z,99513.91
2023-03-27T07:58:49.248Z,99514.78
2023-03-27T08:01:21.672Z,99518.97
2023-03-27T08:03:50.482Z,99520.78
2023-03-27T08:06:20.798Z,99524.47
2023-03-27T08:08:51.078Z,99525.06
2023-03-27T08:11:30.167Z,99518.94
2023-03-27T08:13:59.642Z,99522.03
2023-03-27T08:16:30.211Z,99520.88
2023-03-27T08:19:02.380Z,99524.00
2023-03-27T08:21:32.140Z,99516.50
2023-03-27T08:24:01.597Z,99523.03
2023-03-27T08:26:51.890Z,99516.69
2023-03-27T08:29:20.805Z,99516.06
2023-03-27T08:31:48.996Z,99526.56
2023-03-27T08:34:17.790Z,99515.44
2023-03-27T08:36:52.808Z,99522.78
2023-03-27T08:39:23.004Z,99531.50
2023-03-27T08:42:00.622Z,99541.84
2023-03-27T08:44:34.584Z,99533.63
2023-03-27T08:47:15.130Z,99538.63
2023-03-27T08:49:53.004Z,99549.00
2023-03-27T08:52:25.681Z,99549.19
2023-03-27T08:54:59.493Z,99551.03
2023-03-27T08:57:41.722Z,99551.97
2023-03-27T09:00:21.414Z,99552.81
2023-03-27T09:03:08.132Z,99552.09
2023-03-27T09:05:42.883Z,99556.41
2023-03-27T09:08:32.316Z,99559.44
2023-03-27T09:11:19.837Z,99565.78
2023-03-27T09:13:55.558Z,99573.03
2023-03-27T09:19:03.533Z,99559.53
2023-03-27T09:21:33.575Z,99564.56
2023-03-27T09:24:13.692Z,99569.00
2023-03-27T09:27:32.746Z,99572.66
2023-03-27T09:30:32.008Z,99583.63
2023-03-27T09:33:07.386Z,99580.97
2023-03-27T09:35:35.766Z,99586.09
2023-03-27T09:38:10.670Z,99596.47
2023-03-27T09:40:49.946Z,99597.22
2023-03-27T09:43:21.732Z,99594.84
2023-03-27T09:45:53.378Z,99595.91
2023-03-27T09:48:41.698Z,99596.09
2023-03-27T09:51:38.475Z,99588.84
2023-03-27T09:54:14.724Z,99590.38
2023-03-27T09:56:48.839Z,99593.47
2023-03-27T09:59:24.371Z,99594.56
2023-03-27T10:01:55.650Z,99598.44
2023-03-27T10:04:26.676Z,99601.56
2023-03-27T10:07:01.939Z,99607.16
2023-03-27T10:09:43.350Z,99604.16
2023-03-27T10:12:19.981Z,99610.56
2023-03-27T10:14:52.790Z,99606.09
2023-03-27T10:17:27.480Z,99599.28
2023-03-27T10:20:13.755Z,99598.09
2023-03-27T10:22:43.960Z,99601.75
2023-03-27T10:25:19.847Z,99605.53
2023-03-27T10:27:54.409Z,99613.31
2023-03-27T10:30:40.602Z,99610.06
2023-03-27T10:33:36.843Z,99615.78
2023-03-27T10:36:36.840Z,99618.88
2023-03-27T10:39:13.160Z,99618.31
2023-03-27T10:41:55.097Z,99625.94
2023-03-27T10:44:26.125Z,99622.34
2023-03-27T10:46:57.586Z,99616.63
2023-03-27T10:49:25.791Z,99616.19
2023-03-27T10:52:03.364Z,99619.00
2023-03-27T10:55:13.709Z,99627.16
2023-03-27T10:57:44.439Z,99618.47
2023-03-27T11:00:22.757Z,99620.03
2023-03-27T11:03:25.903Z,99618.25
2023-03-27T11:06:02.166Z,99610.34
2023-03-27T11:08:38.948Z,99613.84
2023-03-27T11:11:09.543Z,99621.44
2023-03-27T11:13:46.350Z,99615.66
2023-03-27T11:16:29.194Z,99611.00
2023-03-27T11:19:36.278Z,99623.66
2023-03-27T11:22:30.924Z,99617.97
2023-03-27T11:25:11.105Z,99612.09
2023-03-27T11:27:41.614Z,99610.63
2023-03-27T11:30:46.311Z,99608.31
2023-03-27T11:33:24.383Z,99601.69
2023-03-27T11:36:12.047Z,99601.47
2023-03-27T11:39:06.808Z,99605.50
2023-03-27T11:41:35.586Z,99619.81
2023-03-27T11:44:04.231Z,99625.28
2023-03-27T11:47:09.396Z,99627.72
2023-03-27T11:49:52.728Z,99635.03
2023-03-27T11:52:44.137Z,99629.63
2023-03-27T11:55:31.292Z,99636.53
2023-03-27T11:58:01.171Z,99638.34
2023-03-27T12:00:36.612Z,99635.28
2023-03-27T12:03:07.008Z,99633.34
2023-03-27T12:05:56.679Z,99631.59
2023-03-27T12:08:36.286Z,99639.28
2023-03-27T12:11:05.396Z,99635.13
2023-03-27T12:14:14.027Z,99630.28
2023-03-27T12:17:06.044Z,99629.09
2023-03-27T12:20:01.308Z,99628.56
2023-03-27T12:22:42.033Z,99634.06
2023-03-27T12:25:38.242Z,99638.41
2023-03-27T12:28:32.980Z,99646.16
2023-03-27T12:31:20.967Z,99655.50
2023-03-27T12:33:57.306Z,99648.03
2023-03-27T12:36:26.581Z,99652.88
2023-03-27T12:38:58.056Z,99650.41
2023-03-27T12:41:33.055Z,99659.31
2023-03-27T12:44:06.572Z,99666.69
2023-03-27T12:46:42.497Z,99668.03
2023-03-27T12:49:13.255Z,99661.88
2023-03-27T12:51:56.776Z,99668.69
2023-03-27T12:55:02.796Z,99663.59
2023-03-27T12:57:51.330Z,99657.38
2023-03-27T13:00:29.134Z,99657.72
2023-03-27T13:03:13.813Z,99651.88
2023-03-27T13:05:54.662Z,99653.63
2023-03-27T13:08:40.346Z,99652.09
2023-03-27T13:11:34.248Z,99639.50
2023-03-27T13:14:10.528Z,99645.97
2023-03-27T13:16:57.460Z,99643.91
2023-03-27T13:19:29.078Z,99647.13
2023-03-27T13:22:10.843Z,99644.50
2023-03-27T13:24:50.013Z,99643.81
2023-03-27T13:27:36.108Z,99648.97
2023-03-27T13:30:04.941Z,99653.06
2023-03-27T13:33:11.839Z,99655.34
2023-03-27T13:35:51.320Z,99650.84
2023-03-27T13:38:41.119Z,99663.13
2023-03-27T13:41:27.799Z,99659.59
2023-03-27T13:43:56.170Z,99661.19
2023-03-27T13:46:42.060Z,99656.16
2023-03-27T13:49:41.710Z,99663.31
2023-03-27T13:52:32.613Z,99661.72
2023-03-27T13:55:12.791Z,99662.22
2023-03-27T13:58:18.650Z,99670.91
2023-03-27T14:00:47.537Z,99670.78
2023-03-27T14:03:16.761Z,99680.56
2023-03-27T14:06:07.961Z,99681.25
2023-03-27T14:08:46.635Z,99681.91
2023-03-27T14:11:57.178Z,99680.25
2023-03-27T14:15:10.677Z,99678.00
2023-03-27T14:17:58.357Z,99688.81
2023-03-27T14:20:32.680Z,99689.88
2023-03-27T14:23:14.489Z,99696.59
2023-03-27T14:26:00.567Z,99694.16
2023-03-27T14:28:34.818Z,99694.78
2023-03-27T14:31:08.648Z,99700.97
2023-03-27T14:34:12.400Z,99691.63
2023-03-27T14:36:47.995Z,99696.22
2023-03-27T14:39:23.370Z,99701.19
2023-03-27T14:42:02.047Z,99692.72
2023-03-27T14:44:32.901Z,99696.09
2023-03-27T14:47:10.357Z,99703.00
2023-03-27T14:49:45.438Z,99709.44
2023-03-27T14:52:22.194Z,99722.31
2023-03-27T14:55:09.260Z,99726.50
2023-03-27T14:57:39.638Z,99727.72
2023-03-27T15:00:16.609Z,99730.09
2023-03-27T15:02:48.529Z,99736.28
2023-03-27T15:05:17.568Z,99728.47
2023-03-27T15:07:49.802Z,99739.34
2023-03-27T15:10:31.816Z,99745.09
2023-03-27T15:13:33.908Z,99759.03
2023-03-27T15:16:03.156Z,99754.91
2023-03-27T15:18:36.307Z,99763.59
2023-03-27T15:21:07.130Z,99771.72
2023-03-27T15:23:42.901Z,99779.28
2023-03-27T15:26:18.850Z,99784.34
2023-03-27T15:29:02.023Z,99791.09
2023-03-27T15:31:30.913Z,99794.91
2023-03-27T15:34:03.618Z,99792.25
2023-03-27T15:36:34.572Z,99797.63
2023-03-27T15:39:04.185Z,99806.09
2023-03-27T15:41:35.249Z,99807.44
2023-03-27T15:44:04.398Z,99814.22
2023-03-27T15:46:45.767Z,99812.13
2023-03-27T15:49:19.555Z,99819.47
2023-03-27T15:51:47.336Z,99809.94
2023-03-27T15:54:26.297Z,99821.50
2023-03-27T15:57:09.136Z,99815.38
2023-03-27T15:59:52.773Z,99834.81
2023-03-27T16:02:22.436Z,99836.09
2023-03-27T16:04:53.651Z,99842.38
2023-03-27T16:07:23.865Z,99845.72
2023-03-27T16:10:02.616Z,99848.84
2023-03-27T16:12:34.855Z,99847.38
2023-03-27T16:15:06.475Z,99852.84
2023-03-27T16:17:45.435Z,99861.09
2023-03-27T16:20:16.300Z,99865.25
2023-03-27T16:22:43.946Z,99862.44
2023-03-27T16:25:12.746Z,99867.44
2023-03-27T16:27:44.910Z,99875.91
2023-03-27T16:30:23.440Z,99879.75
2023-03-27T16:32:51.285Z,99884.31
2023-03-27T16:35:19.550Z,99887.13
2023-03-27T16:37:47.976Z,99890.91
2023-03-27T16:40:16.008Z,99892.22
2023-03-27T16:42:43.643Z,99905.22
2023-03-27T16:45:11.779Z,99906.38
2023-03-27T16:47:41.803Z,99922.81
2023-03-27T16:50:15.469Z,99932.19
2023-03-27T16:52:43.126Z,99936.22
2023-03-27T16:55:13.247Z,99938.16
2023-03-27T16:57:41.985Z,99943.72
2023-03-27T17:00:11.875Z,99941.84
2023-03-27T17:02:39.886Z,99955.25
2023-03-27T17:05:09.235Z,99956.19
2023-03-27T17:07:36.870Z,99972.75
2023-03-27T17:10:05.422Z,99970.09
2023-03-27T17:12:33.095Z,99985.63
2023-03-27T17:15:01.265Z,99983.31
2023-03-27T17:17:32.259Z,99989.22
2023-03-27T17:20:01.108Z,99998.09
2023-03-27T17:22:30.241Z,100019.81
2023-03-27T17:25:02.697Z,100019.44
2023-03-27T17:27:30.877Z,100022.13
2023-03-27T17:29:58.854Z,100034.09
2023-03-27T17:32:27.182Z,100041.78
2023-03-27T17:34:56.096Z,100047.19
2023-03-27T17:37:24.084Z,100050.31
2023-03-27T17:39:52.803Z,100047.97
2023-03-27T17:42:21.072Z,100059.97
2023-03-27T17:44:49.457Z,100061.84
2023-03-27T17:47:17.048Z,100068.28
2023-03-27T17:49:45.397Z,100080.25
2023-03-27T17:52:14.348Z,100081.03
2023-03-27T17:54:42.508Z,100085.66
2023-03-27T17:57:10.179Z,100086.84
2023-03-27T17:59:38.642Z,100097.25
2023-03-27T18:02:07.485Z,100100.59
2023-03-27T18:04:36.668Z,100113.25
2023-03-27T18:07:04.432Z,100120.16
2023-03-27T18:09:34.768Z,100140.69
2023-03-27T18:12:02.545Z,100146.00
2023-03-27T18:14:30.899Z,100151.75
2023-03-27T18:16:58.757Z,100156.25
2023-03-27T18:19:26.704Z,100169.28
2023-03-27T18:21:54.254Z,100164.22
2023-03-27T18:24:22.849Z,100174.16
2023-03-27T18:26:50.648Z,100186.06
2023-03-27T18:29:21.602Z,100187.34
2023-03-27T18:31:49.407Z,100192.41
2023-03-27T18:34:17.647Z,100195.22
2023-03-27T18:36:51.519Z,100203.75
2023-03-27T18:39:19.455Z,100209.44
2023-03-27T18:41:46.993Z,100221.63
2023-03-27T18:44:15.757Z,100230.69
2023-03-27T18:46:43.344Z,100233.91
2023-03-27T18:49:23.760Z,100230.19
2023-03-27T18:51:52.416Z,100240.72
2023-03-27T18:54:20.598Z,100242.16
2023-03-27T18:56:49.054Z,100249.22
2023-03-27T18:59:17.469Z,100242.97
2023-03-27T19:01:45.370Z,100247.66
2023-03-27T19:04:14.556Z,100262.78
2023-03-27T19:06:46.385Z,100281.09
2023-03-27T19:09:14.785Z,100284.72
2023-03-27T19:11:44.283Z,100293.25
2023-03-27T19:14:31.086Z,100288.63
2023-03-27T19:17:37.534Z,100297.34
2023-03-27T19:20:20.114Z,100309.88
2023-03-27T19:23:11.062Z,100327.22
2023-03-27T19:25:46.798Z,100324.72
2023-03-27T19:28:14.904Z,100334.66
2023-03-27T19:30:43.290Z,100342.09
2023-03-27T19:33:12.153Z,100353.41
2023-03-27T19:35:41.079Z,100353.56
2023-03-27T19:38:08.693Z,100358.44
2023-03-27T19:40:36.687Z,100362.66
2023-03-27T19:43:04.496Z,100378.09
2023-03-27T19:45:32.541Z,100381.72
2023-03-27T19:48:00.188Z,100383.00
2023-03-27T19:50:28.334Z,100387.19
2023-03-27T19:53:13.157Z,100390.53
2023-03-27T19:55:42.501Z,100389.25
2023-03-27T19:58:10.356Z,100398.72
2023-03-27T20:00:41.340Z,100405.44
2023-03-27T20:03:10.778Z,100407.19
2023-03-27T20:05:41.933Z,100421.69
2023-03-27T20:08:09.609Z,100429.59
2023-03-27T20:10:37.846Z,100436.09
2023-03-27T20:13:05.477Z,100443.97
2023-03-27T20:15:35.069Z,100452.34
2023-03-27T20:18:04.853Z,100452.22
2023-03-27T20:20:33.477Z,100439.16
2023-03-27T20:23:02.953Z,100454.50
2023-03-27T20:25:33.888Z,100458.56
2023-03-27T20:28:02.360Z,100463.72
2023-03-27T20:30:32.140Z,100455.31
2023-03-27T20:33:03.238Z,100454.38
2023-03-27T20:35:32.035Z,100456.84
2023-03-27T20:38:04.770Z,100456.13
2023-03-27T20:40:53.364Z,100463.38
2023-03-27T20:43:27.315Z,100473.69
2023-03-27T20:45:59.071Z,100468.69
2023-03-27T20:48:32.680Z,100473.84
2023-03-27T20:51:03.136Z,100504.41
2023-03-27T20:53:33.583Z,100504.19
2023-03-27T20:56:03.614Z,100524.78
2023-03-27T20:58:35.850Z,100533.41
2023-03-27T21:01:05.290Z,100554.41
2023-03-27T21:03:35.390Z,100546.91
2023-03-27T21:06:08.570Z,100563.50
2023-03-27T21:08:36.574Z,100571.09
2023-03-27T21:11:04.885Z,100584.19
2023-03-27T21:13:33.111Z,100593.03
2023-03-27T21:16:01.873Z,100613.03
2023-03-27T21:18:30.292Z,100619.44
2023-03-27T21:20:58.224Z,100619.44
2023-03-27T21:23:25.972Z,100610.88
2023-03-27T21:25:55.279Z,100620.81
2023-03-27T21:28:22.974Z,100621.25
2023-03-27T21:30:50.954Z,100647.50
2023-03-27T21:33:18.608Z,100655.31
2023-03-27T21:35:48.033Z,100673.78
2023-03-27T21:38:16.844Z,100675.91
2023-03-27T21:40:47.829Z,100673.69
2023-03-27T21:43:15.629Z,100675.09
2023-03-27T21:45:43.774Z,100679.84
2023-03-27T21:48:11.609Z,100698.84
2023-03-27T21:50:39.753Z,100696.75
2023-03-27T21:53:07.373Z,100705.91
2023-03-27T21:55:36.128Z,100706.50
2023-03-27T21:58:05.005Z,100712.16
2023-03-27T22:00:33.034Z,100711.59
2023-03-27T22:03:00.886Z,100715.25
2023-03-27T22:05:29.170Z,100710.97
2023-03-27T22:07:57.843Z,100722.78
2023-03-27T22:10:26.000Z,100729.41
2023-03-27T22:12:53.646Z,100730.13
2023-03-27T22:15:21.835Z,100731.94
2023-03-27T22:17:49.493Z,100739.16
2023-03-27T22:20:17.874Z,100729.31
2023-03-27T22:22:45.793Z,100745.38
2023-03-27T22:25:13.824Z,100745.88
2023-03-27T22:27:42.193Z,100742.41
2023-03-27T22:30:11.865Z,100740.44
2023-03-27T22:32:42.675Z,100746.34
2023-03-27T22:35:11.661Z,100762.06
2023-03-27T22:37:39.727Z,100768.28
2023-03-27T22:40:08.489Z,100779.88
2023-03-27T22:42:37.042Z,100772.97
2023-03-27T22:45:05.925Z,100776.81
2023-03-27T22:47:33.677Z,100790.94
2023-03-27T22:50:02.903Z,100789.88
2023-03-27T22:52:30.680Z,100794.25
2023-03-27T22:54:58.810Z,100800.06
2023-03-27T22:57:26.484Z,100806.69
2023-03-27T22:59:54.619Z,100813.59
2023-03-27T23:02:22.401Z,100827.78
2023-03-27T23:04:50.695Z,100827.16
2023-03-27T23:07:18.302Z,100846.97
2023-03-27T23:09:46.259Z,100855.16
2023-03-27T23:12:13.870Z,100857.81
2023-03-27T23:14:41.880Z,100862.28
2023-03-27T23:17:09.611Z,100865.13
2023-03-27T23:19:37.617Z,100873.78
2023-03-27T23:22:05.270Z,100880.22
2023-03-27T23:24:33.237Z,100893.59
2023-03-27T23:27:01.068Z,100898.41
2023-03-27T23:29:28.994Z,100913.28
2023-03-27T23:31:56.831Z,100897.69
2023-03-27T23:34:24.825Z,100902.41
2023-03-27T23:36:52.418Z,100909.13
2023-03-27T23:39:20.508Z,100914.91
2023-03-27T23:41:48.150Z,100923.41
2023-03-27T23:44:16.274Z,100922.13
2023-03-27T23:46:43.860Z,100934.34
2023-03-27T23:49:12.885Z,100940.44
2023-03-27T23:51:40.507Z,100944.94
2023-03-27T23:54:08.423Z,100949.88
2023-03-27T23:56:36.210Z,100960.06
2023-03-27T23:59:04.465Z,100960.59
